Minneapolis, MN

19:05 CDT le 28 mai 2015 (GMT -0500)
Minneapolis-Saint Paul International | | Change Station
CLOSE
Current Station
Aéroport
Location: Minneapolis,
Altitude: 837 ft
Stations météo à proximité

Alt. 837 ft 44.89 °N, 93.23 °W | Updated 12 minutes ago

Partiellement nuageux
Partiellement nuageux
81 ° F
Paraît 81 ° F
N
17
Vent Variable Vent de Sud
Gusts 24 mph

Aujourd'hui
Haut(e) -- | Bas -- ° F
--% Risque de précip.
Hier
Haut(e) -- | Bas -- ° F
Precip. -- pouce
5:32 AM 8:48 PM
Lune gibbeuse croissante, 79% visible
Pression 29.89 pouce
Visibilité 10.0 Miles terrestres
Nuages Peu 7000 ft
Nuageux 30000 ft
Point de rosée 50 ° F
Humidité 34%
Précipitations 0.00 pouce
Profondeur de la couche neigeuse Non disponible.
UV 1 sur 12
Pollen 7.00 sur 12
Qualité de l'air Non disponible.
Flu Activity Sporadic
METAR KMSP 282353Z 17015G21KT 10SM FEW070 BKN300 27/10 A2990 RMK AO2 SLP122 T02720100 10289 20272 58028

More Conditions Fewer Conditions

Pression 29.89 pouce
Visibilité 10.0 Miles terrestres
Nuages Peu 7000 ft
Nuageux 30000 ft
Point de rosée 50 ° F
Humidité 34%
Précipitations 0.00 pouce
Profondeur de la couche neigeuse Non disponible.
UV 1 sur 12
Pollen 7.00 sur 12
Qualité de l'air Non disponible.
Flu Activity Sporadic
METAR KMSP 282353Z 17015G21KT 10SM FEW070 BKN300 27/10 A2990 RMK AO2 SLP122 T02720100 10289 20272 58028

More Conditions Fewer Conditions

10-Day Weather Forecast

Almanac

Astronomie

May. 28, 2015 Lever Coucher
Temps réel
Crépuscule civil
Crépuscule nautique
Crépuscule astronomique
Lune
Durée de lumière visible
Longueur du jour
Tomorrow will be .
, % of the Moon is Illuminated

Extrêmes aujourd'hui

State Highs State Lows

Community

WunderPhotos

Upload Photos

1,825,096 Photos téléchargées !

WunderBlogs® & News

Nearby

Qualité de l'air

  Qualité de l'air Indice de la qualité de l'air Polluant
Not available.

Épaisseur de neige

Station Depth Altitude

Activité sismique

Ville Distance Mag. Time & Date
Minimum magnitude displayed is 2.5.

Températures des eaux côtières

Lieu Température

Stations

Stations météo à proximité

Emplacement de la station Température Refroidissement éolien Point de rosée Humidité Vent Precip. Alt. Mise à jour Type